sensor_id;sensor_type;location;lat;lon;timestamp;P1;durP1;ratioP1;P2;durP2;ratioP2
7989;SDS011;4040;42.848;23.034;2022-10-16T00:05:10;7.97;;;5.03;;
7989;SDS011;4040;42.848;23.034;2022-10-16T00:11:02;10.10;;;6.60;;
7989;SDS011;4040;42.848;23.034;2022-10-16T00:16:52;6.53;;;5.17;;
7989;SDS011;4040;42.848;23.034;2022-10-16T00:22:41;5.40;;;4.20;;
7989;SDS011;4040;42.848;23.034;2022-10-16T00:28:31;10.77;;;4.83;;
7989;SDS011;4040;42.848;23.034;2022-10-16T00:34:20;6.87;;;4.20;;
7989;SDS011;4040;42.848;23.034;2022-10-16T00:40:09;8.27;;;4.67;;
7989;SDS011;4040;42.848;23.034;2022-10-16T00:45:59;6.57;;;5.70;;
7989;SDS011;4040;42.848;23.034;2022-10-16T00:51:50;10.70;;;4.63;;
7989;SDS011;4040;42.848;23.034;2022-10-16T00:57:40;8.03;;;5.40;;
7989;SDS011;4040;42.848;23.034;2022-10-16T01:03:32;7.80;;;5.10;;
7989;SDS011;4040;42.848;23.034;2022-10-16T01:09:25;6.57;;;5.00;;
7989;SDS011;4040;42.848;23.034;2022-10-16T01:15:21;6.43;;;4.57;;
7989;SDS011;4040;42.848;23.034;2022-10-16T01:21:16;8.73;;;5.67;;
7989;SDS011;4040;42.848;23.034;2022-10-16T01:27:12;5.83;;;4.63;;
7989;SDS011;4040;42.848;23.034;2022-10-16T01:33:03;7.30;;;4.50;;
7989;SDS011;4040;42.848;23.034;2022-10-16T01:38:59;8.63;;;5.00;;
7989;SDS011;4040;42.848;23.034;2022-10-16T01:44:51;8.13;;;5.10;;
7989;SDS011;4040;42.848;23.034;2022-10-16T01:50:41;6.57;;;4.60;;
7989;SDS011;4040;42.848;23.034;2022-10-16T01:56:32;6.33;;;4.60;;
7989;SDS011;4040;42.848;23.034;2022-10-16T02:02:24;5.63;;;4.40;;
7989;SDS011;4040;42.848;23.034;2022-10-16T02:12:19;9.37;;;5.10;;
7989;SDS011;4040;42.848;23.034;2022-10-16T02:18:15;7.10;;;4.70;;
7989;SDS011;4040;42.848;23.034;2022-10-16T02:24:06;7.13;;;4.63;;
7989;SDS011;4040;42.848;23.034;2022-10-16T02:29:59;5.17;;;4.23;;
7989;SDS011;4040;42.848;23.034;2022-10-16T02:35:56;6.90;;;4.47;;
7989;SDS011;4040;42.848;23.034;2022-10-16T02:41:46;8.47;;;5.03;;
7989;SDS011;4040;42.848;23.034;2022-10-16T02:47:35;8.37;;;4.80;;
7989;SDS011;4040;42.848;23.034;2022-10-16T02:53:25;10.97;;;6.50;;
7989;SDS011;4040;42.848;23.034;2022-10-16T02:59:14;7.80;;;5.30;;
7989;SDS011;4040;42.848;23.034;2022-10-16T03:05:03;13.80;;;6.00;;
7989;SDS011;4040;42.848;23.034;2022-10-16T03:15:16;7.20;;;5.50;;
7989;SDS011;4040;42.848;23.034;2022-10-16T03:21:05;7.30;;;4.77;;
7989;SDS011;4040;42.848;23.034;2022-10-16T03:26:53;5.53;;;4.80;;
7989;SDS011;4040;42.848;23.034;2022-10-16T03:32:44;6.43;;;4.93;;
7989;SDS011;4040;42.848;23.034;2022-10-16T03:38:33;7.33;;;4.70;;
7989;SDS011;4040;42.848;23.034;2022-10-16T03:44:21;7.83;;;4.80;;
7989;SDS011;4040;42.848;23.034;2022-10-16T03:50:12;10.03;;;6.07;;
7989;SDS011;4040;42.848;23.034;2022-10-16T03:56:00;6.10;;;5.00;;
7989;SDS011;4040;42.848;23.034;2022-10-16T04:01:49;6.90;;;4.90;;
7989;SDS011;4040;42.848;23.034;2022-10-16T04:07:39;8.17;;;5.47;;
7989;SDS011;4040;42.848;23.034;2022-10-16T04:17:50;7.53;;;4.50;;
7989;SDS011;4040;42.848;23.034;2022-10-16T04:23:41;5.40;;;4.73;;
7989;SDS011;4040;42.848;23.034;2022-10-16T04:29:30;7.40;;;5.20;;
7989;SDS011;4040;42.848;23.034;2022-10-16T04:35:18;6.67;;;5.27;;
7989;SDS011;4040;42.848;23.034;2022-10-16T04:41:09;8.67;;;6.90;;
7989;SDS011;4040;42.848;23.034;2022-10-16T04:46:57;13.77;;;9.23;;
7989;SDS011;4040;42.848;23.034;2022-10-16T04:52:46;10.37;;;7.63;;
7989;SDS011;4040;42.848;23.034;2022-10-16T04:58:36;9.93;;;7.57;;
7989;SDS011;4040;42.848;23.034;2022-10-16T05:04:25;10.17;;;7.10;;
7989;SDS011;4040;42.848;23.034;2022-10-16T05:10:13;11.03;;;7.27;;
7989;SDS011;4040;42.848;23.034;2022-10-16T05:20:25;10.60;;;6.97;;
7989;SDS011;4040;42.848;23.034;2022-10-16T05:26:14;10.83;;;7.83;;
7989;SDS011;4040;42.848;23.034;2022-10-16T05:32:03;12.30;;;8.63;;
7989;SDS011;4040;42.848;23.034;2022-10-16T05:37:53;14.90;;;9.13;;
7989;SDS011;4040;42.848;23.034;2022-10-16T05:43:42;10.03;;;7.07;;
7989;SDS011;4040;42.848;23.034;2022-10-16T05:49:31;7.00;;;4.80;;
7989;SDS011;4040;42.848;23.034;2022-10-16T05:55:21;5.73;;;4.20;;
7989;SDS011;4040;42.848;23.034;2022-10-16T06:01:10;6.23;;;3.90;;
7989;SDS011;4040;42.848;23.034;2022-10-16T06:07:00;5.37;;;4.20;;
7989;SDS011;4040;42.848;23.034;2022-10-16T06:12:50;7.87;;;5.70;;
7989;SDS011;4040;42.848;23.034;2022-10-16T06:23:00;14.13;;;8.67;;
7989;SDS011;4040;42.848;23.034;2022-10-16T06:28:53;6.15;;;3.47;;
7989;SDS011;4040;42.848;23.034;2022-10-16T06:34:42;7.57;;;3.60;;
7989;SDS011;4040;42.848;23.034;2022-10-16T06:40:31;5.95;;;3.85;;
7989;SDS011;4040;42.848;23.034;2022-10-16T06:46:22;7.57;;;3.97;;
7989;SDS011;4040;42.848;23.034;2022-10-16T06:51:53;5.68;;;3.95;;
7989;SDS011;4040;42.848;23.034;2022-10-16T06:57:41;4.63;;;3.55;;
7989;SDS011;4040;42.848;23.034;2022-10-16T07:03:32;6.38;;;3.78;;
7989;SDS011;4040;42.848;23.034;2022-10-16T07:09:21;5.25;;;3.80;;
7989;SDS011;4040;42.848;23.034;2022-10-16T07:15:10;5.38;;;3.40;;
7989;SDS011;4040;42.848;23.034;2022-10-16T07:25:12;5.60;;;4.15;;
7989;SDS011;4040;42.848;23.034;2022-10-16T07:31:01;38.15;;;19.35;;
7989;SDS011;4040;42.848;23.034;2022-10-16T07:36:51;6.18;;;4.00;;
7989;SDS011;4040;42.848;23.034;2022-10-16T07:42:41;5.20;;;4.15;;
7989;SDS011;4040;42.848;23.034;2022-10-16T07:48:30;3.72;;;3.00;;
7989;SDS011;4040;42.848;23.034;2022-10-16T07:54:21;3.45;;;2.90;;
7989;SDS011;4040;42.848;23.034;2022-10-16T08:00:12;3.95;;;3.17;;
7989;SDS011;4040;42.848;23.034;2022-10-16T08:06:01;3.95;;;2.90;;
7989;SDS011;4040;42.848;23.034;2022-10-16T08:11:51;3.63;;;3.00;;
7989;SDS011;4040;42.848;23.034;2022-10-16T08:17:41;5.10;;;2.90;;
7989;SDS011;4040;42.848;23.034;2022-10-16T08:27:52;5.93;;;3.08;;
7989;SDS011;4040;42.848;23.034;2022-10-16T08:33:43;3.08;;;2.60;;
7989;SDS011;4040;42.848;23.034;2022-10-16T08:39:34;3.85;;;3.20;;
7989;SDS011;4040;42.848;23.034;2022-10-16T08:45:28;5.07;;;2.65;;
7989;SDS011;4040;42.848;23.034;2022-10-16T08:51:24;4.18;;;3.15;;
7989;SDS011;4040;42.848;23.034;2022-10-16T08:57:16;3.75;;;3.17;;
7989;SDS011;4040;42.848;23.034;2022-10-16T09:03:10;5.63;;;3.53;;
7989;SDS011;4040;42.848;23.034;2022-10-16T09:09:10;4.55;;;3.15;;
7989;SDS011;4040;42.848;23.034;2022-10-16T09:15:21;4.32;;;3.25;;
7989;SDS011;4040;42.848;23.034;2022-10-16T09:21:18;6.07;;;3.20;;
7989;SDS011;4040;42.848;23.034;2022-10-16T09:27:13;3.13;;;2.50;;
7989;SDS011;4040;42.848;23.034;2022-10-16T09:33:02;4.72;;;2.72;;
7989;SDS011;4040;42.848;23.034;2022-10-16T09:39:01;5.72;;;3.20;;
7989;SDS011;4040;42.848;23.034;2022-10-16T09:44:53;4.55;;;2.65;;
7989;SDS011;4040;42.848;23.034;2022-10-16T09:50:42;4.07;;;2.50;;
7989;SDS011;4040;42.848;23.034;2022-10-16T09:56:31;4.72;;;2.67;;
7989;SDS011;4040;42.848;23.034;2022-10-16T10:02:27;6.78;;;4.55;;
7989;SDS011;4040;42.848;23.034;2022-10-16T10:08:18;5.53;;;3.05;;
7989;SDS011;4040;42.848;23.034;2022-10-16T10:14:09;4.28;;;3.00;;
7989;SDS011;4040;42.848;23.034;2022-10-16T10:20:15;4.25;;;2.80;;
7989;SDS011;4040;42.848;23.034;2022-10-16T10:30:35;4.85;;;3.00;;
7989;SDS011;4040;42.848;23.034;2022-10-16T10:36:32;4.57;;;3.00;;
7989;SDS011;4040;42.848;23.034;2022-10-16T10:42:24;3.65;;;2.53;;
7989;SDS011;4040;42.848;23.034;2022-10-16T10:48:28;3.25;;;2.80;;
7989;SDS011;4040;42.848;23.034;2022-10-16T10:54:37;3.35;;;2.65;;
7989;SDS011;4040;42.848;23.034;2022-10-16T11:00:39;4.00;;;2.78;;
7989;SDS011;4040;42.848;23.034;2022-10-16T11:06:37;4.90;;;2.70;;
7989;SDS011;4040;42.848;23.034;2022-10-16T11:12:32;3.10;;;2.80;;
7989;SDS011;4040;42.848;23.034;2022-10-16T11:18:24;11.48;;;7.63;;
7989;SDS011;4040;42.848;23.034;2022-10-16T11:24:19;4.07;;;3.00;;
7989;SDS011;4040;42.848;23.034;2022-10-16T11:30:14;5.53;;;2.92;;
7989;SDS011;4040;42.848;23.034;2022-10-16T11:36:08;4.32;;;2.70;;
7989;SDS011;4040;42.848;23.034;2022-10-16T11:42:04;3.38;;;2.90;;
7989;SDS011;4040;42.848;23.034;2022-10-16T11:48:00;4.15;;;3.30;;
7989;SDS011;4040;42.848;23.034;2022-10-16T11:53:58;3.60;;;2.97;;
7989;SDS011;4040;42.848;23.034;2022-10-16T11:59:52;5.15;;;3.10;;
7989;SDS011;4040;42.848;23.034;2022-10-16T12:05:55;3.53;;;2.80;;
7989;SDS011;4040;42.848;23.034;2022-10-16T12:12:00;6.13;;;2.92;;
7989;SDS011;4040;42.848;23.034;2022-10-16T12:17:48;6.57;;;2.60;;
7989;SDS011;4040;42.848;23.034;2022-10-16T12:23:47;5.05;;;2.67;;
7989;SDS011;4040;42.848;23.034;2022-10-16T12:29:38;2.50;;;2.08;;
7989;SDS011;4040;42.848;23.034;2022-10-16T12:35:30;3.58;;;2.30;;
7989;SDS011;4040;42.848;23.034;2022-10-16T12:41:28;8.68;;;4.80;;
7989;SDS011;4040;42.848;23.034;2022-10-16T12:47:19;3.22;;;2.10;;
7989;SDS011;4040;42.848;23.034;2022-10-16T12:53:17;3.25;;;2.17;;
7989;SDS011;4040;42.848;23.034;2022-10-16T12:59:12;3.05;;;2.75;;
7989;SDS011;4040;42.848;23.034;2022-10-16T13:05:14;2.22;;;2.00;;
7989;SDS011;4040;42.848;23.034;2022-10-16T13:11:14;2.45;;;2.20;;
7989;SDS011;4040;42.848;23.034;2022-10-16T13:17:12;2.83;;;2.20;;
7989;SDS011;4040;42.848;23.034;2022-10-16T13:23:13;3.03;;;2.00;;
7989;SDS011;4040;42.848;23.034;2022-10-16T13:33:36;2.53;;;1.95;;
7989;SDS011;4040;42.848;23.034;2022-10-16T13:39:27;4.03;;;3.35;;
7989;SDS011;4040;42.848;23.034;2022-10-16T13:45:18;5.30;;;2.65;;
7989;SDS011;4040;42.848;23.034;2022-10-16T13:51:13;3.42;;;2.28;;
7989;SDS011;4040;42.848;23.034;2022-10-16T13:57:21;3.78;;;2.63;;
7989;SDS011;4040;42.848;23.034;2022-10-16T14:03:13;4.15;;;2.03;;
7989;SDS011;4040;42.848;23.034;2022-10-16T14:09:06;4.03;;;2.38;;
7989;SDS011;4040;42.848;23.034;2022-10-16T14:15:02;5.68;;;2.70;;
7989;SDS011;4040;42.848;23.034;2022-10-16T14:20:51;6.82;;;2.38;;
7989;SDS011;4040;42.848;23.034;2022-10-16T14:26:42;3.13;;;2.40;;
7989;SDS011;4040;42.848;23.034;2022-10-16T14:32:31;3.85;;;3.00;;
7989;SDS011;4040;42.848;23.034;2022-10-16T14:38:20;3.78;;;3.17;;
7989;SDS011;4040;42.848;23.034;2022-10-16T14:44:10;6.32;;;3.70;;
7989;SDS011;4040;42.848;23.034;2022-10-16T14:50:01;3.90;;;2.60;;
7989;SDS011;4040;42.848;23.034;2022-10-16T14:55:49;6.10;;;2.83;;
7989;SDS011;4040;42.848;23.034;2022-10-16T15:01:40;5.07;;;3.13;;
7989;SDS011;4040;42.848;23.034;2022-10-16T15:07:31;3.13;;;2.60;;
7989;SDS011;4040;42.848;23.034;2022-10-16T15:13:19;3.97;;;2.72;;
7989;SDS011;4040;42.848;23.034;2022-10-16T15:19:10;3.60;;;3.08;;
7989;SDS011;4040;42.848;23.034;2022-10-16T15:24:58;4.90;;;2.92;;
7989;SDS011;4040;42.848;23.034;2022-10-16T15:34:30;6.10;;;3.53;;
7989;SDS011;4040;42.848;23.034;2022-10-16T15:40:19;6.05;;;4.07;;
7989;SDS011;4040;42.848;23.034;2022-10-16T15:46:10;5.28;;;3.67;;
7989;SDS011;4040;42.848;23.034;2022-10-16T15:52:02;8.00;;;3.90;;
7989;SDS011;4040;42.848;23.034;2022-10-16T15:58:01;9.27;;;4.10;;
7989;SDS011;4040;42.848;23.034;2022-10-16T16:03:52;6.37;;;4.50;;
7989;SDS011;4040;42.848;23.034;2022-10-16T16:09:43;5.63;;;4.10;;
7989;SDS011;4040;42.848;23.034;2022-10-16T16:15:31;16.47;;;8.40;;
7989;SDS011;4040;42.848;23.034;2022-10-16T16:21:20;10.27;;;6.80;;
7989;SDS011;4040;42.848;23.034;2022-10-16T16:27:11;4.30;;;3.90;;
7989;SDS011;4040;42.848;23.034;2022-10-16T16:37:12;9.80;;;3.93;;
7989;SDS011;4040;42.848;23.034;2022-10-16T16:43:02;7.40;;;5.70;;
7989;SDS011;4040;42.848;23.034;2022-10-16T16:48:51;6.50;;;4.97;;
7989;SDS011;4040;42.848;23.034;2022-10-16T16:54:42;13.60;;;7.87;;
7989;SDS011;4040;42.848;23.034;2022-10-16T17:00:45;4.20;;;3.20;;
7989;SDS011;4040;42.848;23.034;2022-10-16T17:06:34;4.80;;;3.50;;
7989;SDS011;4040;42.848;23.034;2022-10-16T17:12:23;3.53;;;3.23;;
7989;SDS011;4040;42.848;23.034;2022-10-16T17:18:13;5.50;;;3.37;;
7989;SDS011;4040;42.848;23.034;2022-10-16T17:24:02;4.80;;;3.80;;
7989;SDS011;4040;42.848;23.034;2022-10-16T17:29:51;20.33;;;14.00;;
7989;SDS011;4040;42.848;23.034;2022-10-16T17:40:03;10.40;;;5.67;;
7989;SDS011;4040;42.848;23.034;2022-10-16T17:45:52;9.70;;;7.43;;
7989;SDS011;4040;42.848;23.034;2022-10-16T17:51:41;7.03;;;3.90;;
7989;SDS011;4040;42.848;23.034;2022-10-16T17:57:32;10.43;;;5.17;;
7989;SDS011;4040;42.848;23.034;2022-10-16T18:03:20;7.77;;;4.70;;
7989;SDS011;4040;42.848;23.034;2022-10-16T18:09:10;20.17;;;11.57;;
7989;SDS011;4040;42.848;23.034;2022-10-16T18:15:03;30.67;;;16.17;;
7989;SDS011;4040;42.848;23.034;2022-10-16T18:20:55;28.90;;;12.93;;
7989;SDS011;4040;42.848;23.034;2022-10-16T18:26:44;53.83;;;25.13;;
7989;SDS011;4040;42.848;23.034;2022-10-16T18:32:34;18.53;;;11.83;;
7989;SDS011;4040;42.848;23.034;2022-10-16T18:42:45;23.20;;;13.87;;
7989;SDS011;4040;42.848;23.034;2022-10-16T18:48:37;20.67;;;9.87;;
7989;SDS011;4040;42.848;23.034;2022-10-16T18:54:26;15.17;;;9.20;;
7989;SDS011;4040;42.848;23.034;2022-10-16T19:00:15;16.67;;;9.97;;
7989;SDS011;4040;42.848;23.034;2022-10-16T19:06:06;19.20;;;9.83;;
7989;SDS011;4040;42.848;23.034;2022-10-16T19:11:57;31.37;;;15.57;;
7989;SDS011;4040;42.848;23.034;2022-10-16T19:17:46;12.43;;;7.37;;
7989;SDS011;4040;42.848;23.034;2022-10-16T19:23:36;14.43;;;9.20;;
7989;SDS011;4040;42.848;23.034;2022-10-16T19:29:26;28.63;;;12.97;;
7989;SDS011;4040;42.848;23.034;2022-10-16T19:35:16;19.43;;;10.83;;
7989;SDS011;4040;42.848;23.034;2022-10-16T19:45:28;20.93;;;10.77;;
7989;SDS011;4040;42.848;23.034;2022-10-16T19:51:18;25.63;;;11.93;;
7989;SDS011;4040;42.848;23.034;2022-10-16T19:57:06;25.27;;;11.00;;
7989;SDS011;4040;42.848;23.034;2022-10-16T20:02:57;29.07;;;14.60;;
7989;SDS011;4040;42.848;23.034;2022-10-16T20:08:46;19.07;;;10.83;;
7989;SDS011;4040;42.848;23.034;2022-10-16T20:14:37;16.47;;;8.67;;
7989;SDS011;4040;42.848;23.034;2022-10-16T20:20:27;21.90;;;9.70;;
7989;SDS011;4040;42.848;23.034;2022-10-16T20:26:16;20.40;;;9.10;;
7989;SDS011;4040;42.848;23.034;2022-10-16T20:32:05;18.20;;;8.53;;
7989;SDS011;4040;42.848;23.034;2022-10-16T20:37:56;16.13;;;8.53;;
7989;SDS011;4040;42.848;23.034;2022-10-16T20:48:06;21.20;;;9.07;;
7989;SDS011;4040;42.848;23.034;2022-10-16T20:53:58;20.73;;;9.23;;
7989;SDS011;4040;42.848;23.034;2022-10-16T20:59:48;20.90;;;6.87;;
7989;SDS011;4040;42.848;23.034;2022-10-16T21:05:41;13.57;;;6.23;;
7989;SDS011;4040;42.848;23.034;2022-10-16T21:11:32;13.07;;;7.10;;
7989;SDS011;4040;42.848;23.034;2022-10-16T21:17:21;12.70;;;5.77;;
7989;SDS011;4040;42.848;23.034;2022-10-16T21:23:10;15.97;;;7.57;;
7989;SDS011;4040;42.848;23.034;2022-10-16T21:29:01;14.20;;;7.00;;
7989;SDS011;4040;42.848;23.034;2022-10-16T21:34:51;11.33;;;6.17;;
7989;SDS011;4040;42.848;23.034;2022-10-16T21:40:40;13.57;;;6.37;;
7989;SDS011;4040;42.848;23.034;2022-10-16T21:50:52;8.80;;;4.87;;
7989;SDS011;4040;42.848;23.034;2022-10-16T21:56:40;9.23;;;5.60;;
7989;SDS011;4040;42.848;23.034;2022-10-16T22:08:38;7.60;;;5.40;;
7989;SDS011;4040;42.848;23.034;2022-10-16T22:14:27;15.60;;;6.67;;
7989;SDS011;4040;42.848;23.034;2022-10-16T22:20:16;11.53;;;6.20;;
7989;SDS011;4040;42.848;23.034;2022-10-16T22:26:07;5.97;;;4.50;;
7989;SDS011;4040;42.848;23.034;2022-10-16T22:31:57;7.30;;;4.97;;
7989;SDS011;4040;42.848;23.034;2022-10-16T22:37:45;11.77;;;5.23;;
7989;SDS011;4040;42.848;23.034;2022-10-16T22:43:36;8.23;;;4.60;;
7989;SDS011;4040;42.848;23.034;2022-10-16T22:49:26;6.90;;;4.63;;
7989;SDS011;4040;42.848;23.034;2022-10-16T22:55:15;10.13;;;5.97;;
7989;SDS011;4040;42.848;23.034;2022-10-16T23:01:10;10.43;;;6.43;;
7989;SDS011;4040;42.848;23.034;2022-10-16T23:07:20;9.03;;;5.37;;
7989;SDS011;4040;42.848;23.034;2022-10-16T23:13:08;8.20;;;4.83;;
7989;SDS011;4040;42.848;23.034;2022-10-16T23:19:00;8.53;;;4.90;;
7989;SDS011;4040;42.848;23.034;2022-10-16T23:24:48;7.53;;;5.47;;
7989;SDS011;4040;42.848;23.034;2022-10-16T23:30:37;8.90;;;5.27;;
7989;SDS011;4040;42.848;23.034;2022-10-16T23:36:27;7.70;;;4.93;;
7989;SDS011;4040;42.848;23.034;2022-10-16T23:42:16;9.97;;;7.73;;
7989;SDS011;4040;42.848;23.034;2022-10-16T23:48:05;9.67;;;5.93;;
7989;SDS011;4040;42.848;23.034;2022-10-16T23:53:55;9.37;;;5.30;;
7989;SDS011;4040;42.848;23.034;2022-10-16T23:59:43;7.13;;;4.87;;
